Time;durP1;ratioP1;P1;durP2;ratioP2;P2;SDS_P1;SDS_P2;PMS_P1;PMS_P2;Temp;Humidity;BMP_temperature;BMP_pressure;BME280_temperature;BME280_humidity;BME280_pressure;Samples;Min_cycle;Max_cycle;Signal;HPM_P1;HPM_P2
2023/08/29 00:01:02;;;;;;;2.95;1.38;;;;;;;22.44;51.83;101201.69;4943680;28;20424;-74
2023/08/29 00:03:28;;;;;;;2.10;1.20;;;;;;;22.44;51.58;101198.19;4942294;28;20031;-78
2023/08/29 00:06:03;;;;;;;3.47;1.27;;;;;;;22.43;51.93;101185.91;4943585;29;20042;-76
2023/08/29 00:08:29;;;;;;;3.78;1.20;;;;;;;22.43;51.58;101200.03;4943148;28;20039;-77
2023/08/29 00:10:56;;;;;;;2.80;1.30;;;;;;;22.42;51.88;101184.25;4943107;28;20090;-73
2023/08/29 00:13:21;;;;;;;2.80;1.30;;;;;;;22.42;51.45;101187.72;4943313;28;20043;-72
2023/08/29 00:15:46;;;;;;;3.38;1.20;;;;;;;22.42;51.38;101193.03;4942580;29;20110;-72
2023/08/29 00:18:11;;;;;;;1.80;1.08;;;;;;;22.42;51.63;101190.38;4943192;29;20137;-72
2023/08/29 00:20:39;;;;;;;2.20;1.10;;;;;;;22.41;51.72;101180.75;4943170;28;20113;-72
2023/08/29 00:23:04;;;;;;;2.45;1.20;;;;;;;22.41;51.86;101177.25;4943055;29;20312;-77
2023/08/29 00:25:30;;;;;;;2.55;1.20;;;;;;;22.41;51.42;101177.25;4943340;28;20130;-75
2023/08/29 00:27:55;;;;;;;3.33;1.17;;;;;;;22.40;51.33;101171.13;4941969;29;20554;-77
2023/08/29 00:30:21;;;;;;;5.40;1.10;;;;;;;22.39;51.27;101168.59;4942790;28;20528;-74
2023/08/29 00:32:46;;;;;;;2.42;1.17;;;;;;;22.38;51.64;101164.25;4942503;29;20053;-75
2023/08/29 00:35:11;;;;;;;3.83;1.17;;;;;;;22.38;51.53;101167.78;4943437;28;20035;-73
2023/08/29 00:37:36;;;;;;;2.65;1.20;;;;;;;22.39;51.72;101172.09;4942016;28;20043;-76
2023/08/29 00:40:03;;;;;;;2.90;1.35;;;;;;;22.37;51.15;101167.91;4942573;28;20189;-74
2023/08/29 00:42:28;;;;;;;2.97;1.30;;;;;;;22.37;51.31;101175.88;4942986;28;20082;-78
2023/08/29 00:44:53;;;;;;;5.32;2.13;;;;;;;22.36;51.07;101172.38;4940648;29;20027;-73
2023/08/29 00:47:18;;;;;;;3.87;1.27;;;;;;;22.35;51.10;101170.72;4943690;28;20361;-76
2023/08/29 00:49:44;;;;;;;4.30;1.30;;;;;;;22.35;51.12;101164.53;4942748;28;20372;-73
2023/08/29 00:52:09;;;;;;;2.97;1.30;;;;;;;22.35;51.00;101164.53;4940896;29;20550;-76
2023/08/29 00:54:35;;;;;;;2.70;1.25;;;;;;;22.33;51.05;101164.69;4942760;28;20056;-73
2023/08/29 00:57:00;;;;;;;3.05;1.10;;;;;;;22.34;50.99;101169.03;4942237;28;20035;-74
2023/08/29 00:59:25;;;;;;;2.92;1.30;;;;;;;22.31;51.41;101161.34;4942215;29;20041;-73
2023/08/29 01:01:51;;;;;;;1.98;1.10;;;;;;;22.33;51.03;101166.53;4942270;29;20093;-73
2023/08/29 01:04:16;;;;;;;2.92;1.52;;;;;;;22.32;50.84;101163.03;4942877;29;20436;-73
2023/08/29 01:06:41;;;;;;;2.55;1.20;;;;;;;22.32;50.86;101156.88;4941467;29;20039;-73
2023/08/29 01:09:07;;;;;;;2.25;1.27;;;;;;;22.30;50.82;101151.69;4942589;28;20109;-75
2023/08/29 01:12:15;;;;;;;4.18;1.38;;;;;;;22.27;51.47;101155.47;4941916;28;20031;-77
2023/08/29 01:14:47;;;;;;;3.20;1.90;;;;;;;22.29;51.02;101147.38;4940657;28;20085;-78
2023/08/29 01:17:37;;;;;;;2.95;1.35;;;;;;;22.28;51.06;101162.44;4941873;29;20218;-74
2023/08/29 01:20:05;;;;;;;3.25;1.40;;;;;;;22.30;50.73;101164.97;4941358;28;20037;-71
2023/08/29 01:22:56;;;;;;;2.10;1.00;;;;;;;22.27;50.74;101159.94;4942212;28;20552;-75
2023/08/29 01:25:34;;;;;;;3.20;1.15;;;;;;;22.27;51.06;101155.47;4957058;28;20523;-77
2023/08/29 01:28:00;;;;;;;2.55;1.05;;;;;;;22.27;50.95;101155.47;4941632;28;20086;-74
2023/08/29 01:30:26;;;;;;;2.65;1.48;;;;;;;22.26;50.96;101163.59;4942036;29;20436;-74
2023/08/29 01:32:52;;;;;;;3.22;1.48;;;;;;;22.25;50.74;101165.38;4941376;28;20513;-75
2023/08/29 01:35:17;;;;;;;3.47;1.23;;;;;;;22.25;50.71;101160.06;4942047;28;20042;-76
2023/08/29 01:37:43;;;;;;;3.05;1.40;;;;;;;22.25;50.88;101161.91;4941995;28;20039;-77
2023/08/29 01:40:09;;;;;;;3.55;1.50;;;;;;;22.25;50.96;101160.06;4941444;29;20104;-74
2023/08/29 01:42:36;;;;;;;2.95;1.30;;;;;;;22.25;50.39;101168.03;4942095;28;20031;-78
2023/08/29 01:45:01;;;;;;;3.70;1.20;;;;;;;22.24;50.78;101168.22;4940612;28;20528;-72
2023/08/29 01:47:26;;;;;;;4.13;1.52;;;;;;;22.23;50.36;101170.00;4941329;29;20031;-73
2023/08/29 01:49:52;;;;;;;2.55;1.10;;;;;;;22.25;50.71;101169.84;4941558;28;20365;-72
2023/08/29 01:52:18;;;;;;;2.80;1.30;;;;;;;22.24;50.76;101170.88;4941704;29;20050;-74
2023/08/29 01:54:43;;;;;;;3.22;1.30;;;;;;;22.23;50.60;101177.97;4940995;29;20108;-77
2023/08/29 01:57:10;;;;;;;2.28;1.30;;;;;;;22.20;50.48;101170.28;4941355;29;20086;-75
2023/08/29 01:59:36;;;;;;;3.08;1.60;;;;;;;22.21;50.59;101171.97;4941285;28;20074;-77
2023/08/29 02:02:02;;;;;;;3.40;1.60;;;;;;;22.21;50.68;101177.28;4940317;28;20126;-74
2023/08/29 02:04:28;;;;;;;4.57;1.50;;;;;;;22.21;50.64;101182.59;4941352;28;20046;-78
2023/08/29 02:06:54;;;;;;;3.67;1.40;;;;;;;22.21;50.51;101181.75;4941282;29;20094;-73
2023/08/29 02:09:19;;;;;;;4.15;1.50;;;;;;;22.20;50.51;101175.59;4941068;29;20039;-73
2023/08/29 02:11:44;;;;;;;2.45;1.23;;;;;;;22.20;50.62;101180.06;4942356;29;20115;-73
2023/08/29 02:14:11;;;;;;;3.15;1.60;;;;;;;22.21;50.45;101187.06;4941969;29;20051;-74
2023/08/29 02:16:37;;;;;;;2.60;1.20;;;;;;;22.19;50.14;101178.41;4941070;29;20504;-77
2023/08/29 02:19:02;;;;;;;2.70;1.38;;;;;;;22.18;50.30;101182.88;4942219;29;20035;-74
2023/08/29 02:21:28;;;;;;;4.63;1.58;;;;;;;22.18;50.36;101182.06;4942396;29;20114;-78
2023/08/29 02:23:53;;;;;;;3.50;1.60;;;;;;;22.17;50.17;101186.50;4941315;28;20117;-74
2023/08/29 02:26:18;;;;;;;2.88;1.50;;;;;;;22.17;50.33;101194.47;4941860;29;20043;-75
2023/08/29 02:28:44;;;;;;;2.75;1.50;;;;;;;22.17;50.01;101194.47;4941243;29;20098;-74
2023/08/29 02:31:10;;;;;;;2.80;1.20;;;;;;;22.17;50.03;101199.78;4940798;29;20039;-77
2023/08/29 02:33:37;;;;;;;3.42;1.65;;;;;;;22.17;50.31;101204.25;4941886;28;20473;-74
2023/08/29 02:36:04;;;;;;;3.85;1.50;;;;;;;22.16;50.13;101206.09;4942754;29;20031;-78
2023/08/29 02:38:30;;;;;;;3.88;1.60;;;;;;;22.16;50.35;101203.44;4942380;29;20448;-76
2023/08/29 02:40:55;;;;;;;3.17;1.45;;;;;;;22.16;50.51;101207.88;4941601;29;20039;-73
2023/08/29 02:43:20;;;;;;;2.47;1.20;;;;;;;22.15;50.31;101211.53;4940686;28;20036;-73
2023/08/29 02:45:46;;;;;;;3.67;1.52;;;;;;;22.14;50.15;101221.28;4941104;28;20043;-73
2023/08/29 02:48:11;;;;;;;5.90;1.60;;;;;;;22.15;50.19;101219.50;4940812;29;20043;-78
2023/08/29 02:50:37;;;;;;;4.32;1.60;;;;;;;22.15;49.79;101222.16;4940796;28;20036;-76
2023/08/29 02:53:02;;;;;;;3.10;1.30;;;;;;;22.14;49.89;101223.13;4940800;28;20038;-76
2023/08/29 02:55:28;;;;;;;3.15;1.52;;;;;;;22.13;49.78;101213.47;4941686;29;20110;-73
2023/08/29 02:57:53;;;;;;;3.67;1.50;;;;;;;22.13;50.07;101205.50;4940099;28;20471;-71
2023/08/29 03:00:19;;;;;;;2.88;1.33;;;;;;;22.12;49.99;101210.00;4939554;28;20031;-76
2023/08/29 03:02:44;;;;;;;3.85;1.55;;;;;;;22.12;49.99;101212.63;4939660;29;20027;-73
2023/08/29 03:05:09;;;;;;;3.42;1.52;;;;;;;22.12;50.07;101217.94;4940496;29;20043;-78
2023/08/29 03:07:34;;;;;;;3.05;1.50;;;;;;;22.10;50.05;101219.91;4941106;29;20039;-72
2023/08/29 03:10:00;;;;;;;2.90;1.50;;;;;;;22.10;50.00;101217.25;4955291;28;20031;-76
2023/08/29 03:12:25;;;;;;;3.92;1.48;;;;;;;22.10;49.69;101222.56;4939621;28;20121;-72
2023/08/29 03:14:53;;;;;;;3.65;1.45;;;;;;;22.09;49.81;101215.56;4940545;29;20043;-75
2023/08/29 03:17:19;;;;;;;3.42;1.55;;;;;;;22.10;49.93;101217.25;4939767;29;20035;-72
2023/08/29 03:19:47;;;;;;;3.35;1.35;;;;;;;22.08;49.67;101212.09;4939372;29;20046;-76
2023/08/29 03:22:12;;;;;;;3.10;1.40;;;;;;;22.08;49.70;101209.44;4939901;29;20175;-73
2023/08/29 03:24:38;;;;;;;3.50;1.45;;;;;;;22.08;49.62;101217.41;4940050;29;20125;-77
2023/08/29 03:27:04;;;;;;;3.03;1.50;;;;;;;22.07;49.89;101209.59;4940310;28;20031;-73
2023/08/29 03:29:29;;;;;;;2.90;1.40;;;;;;;22.07;49.84;101218.38;4940910;29;20073;-76
2023/08/29 03:31:54;;;;;;;2.88;1.40;;;;;;;22.07;49.55;101215.72;4941222;29;20344;-75
2023/08/29 03:34:20;;;;;;;3.15;1.55;;;;;;;22.06;50.00;101211.41;4940734;29;20031;-74
2023/08/29 03:36:45;;;;;;;3.13;1.50;;;;;;;22.06;49.76;101208.75;4940945;28;20566;-73
2023/08/29 03:39:10;;;;;;;3.93;1.90;;;;;;;22.06;49.77;101198.13;4943880;28;20532;-74
2023/08/29 03:41:38;;;;;;;4.32;1.60;;;;;;;22.05;49.78;101201.75;4942842;29;20277;-73
2023/08/29 03:44:05;;;;;;;2.80;1.42;;;;;;;22.04;49.88;101196.59;4944642;29;20450;-73
2023/08/29 03:46:30;;;;;;;3.28;1.45;;;;;;;22.04;49.54;101189.47;4944024;29;20039;-74
2023/08/29 03:48:55;;;;;;;3.20;1.40;;;;;;;22.03;49.86;101185.16;4944034;29;20439;-78
2023/08/29 03:51:21;;;;;;;3.65;1.38;;;;;;;22.05;49.52;101177.06;4944345;29;20106;-74
2023/08/29 03:53:46;;;;;;;4.03;1.60;;;;;;;22.04;49.64;101168.22;4943938;29;20043;-78
2023/08/29 03:56:11;;;;;;;3.63;1.55;;;;;;;22.03;49.79;101173.69;4944177;29;20038;-74
2023/08/29 03:58:37;;;;;;;3.17;1.60;;;;;;;22.02;49.62;101170.19;4944028;28;20031;-75
2023/08/29 04:01:03;;;;;;;3.42;1.60;;;;;;;22.03;49.38;101171.03;4943776;28;20031;-74
2023/08/29 04:03:30;;;;;;;2.88;1.50;;;;;;;22.02;49.52;101172.03;4943174;29;20155;-76
2023/08/29 04:05:56;;;;;;;3.70;1.90;;;;;;;22.02;49.72;101169.38;4943794;29;20039;-73
2023/08/29 04:08:21;;;;;;;4.05;1.67;;;;;;;22.02;49.33;101175.50;4943065;28;20097;-73
2023/08/29 04:10:47;;;;;;;3.13;1.30;;;;;;;22.01;49.51;101173.00;4943777;28;20040;-75
2023/08/29 04:13:12;;;;;;;3.40;1.45;;;;;;;22.00;49.38;101164.22;4943316;28;20035;-79
2023/08/29 04:15:38;;;;;;;3.05;1.52;;;;;;;22.00;49.57;101166.00;4942709;29;20065;-73
2023/08/29 04:18:04;;;;;;;5.47;1.63;;;;;;;21.99;49.55;101164.34;4943742;29;20047;-73
2023/08/29 04:20:31;;;;;;;3.83;1.50;;;;;;;21.98;49.54;101154.69;4943223;28;20039;-77
2023/08/29 04:22:58;;;;;;;3.60;1.55;;;;;;;21.99;49.08;101159.03;4942964;29;20555;-76
2023/08/29 04:25:26;;;;;;;3.78;1.50;;;;;;;21.98;49.42;101166.13;4943349;29;20031;-76
2023/08/29 04:27:53;;;;;;;2.63;1.40;;;;;;;21.96;49.28;101160.16;4943377;28;20130;-74
2023/08/29 04:30:19;;;;;;;2.75;1.40;;;;;;;21.96;49.55;101162.81;4943189;28;20074;-74
2023/08/29 04:32:46;;;;;;;4.20;1.58;;;;;;;21.96;49.15;101152.19;4942955;29;20069;-74
2023/08/29 04:35:11;;;;;;;3.40;1.50;;;;;;;21.98;49.21;101154.69;4943312;28;20171;-74
2023/08/29 04:37:37;;;;;;;3.97;1.60;;;;;;;21.94;48.85;101143.53;4942652;29;20046;-76
2023/08/29 04:40:06;;;;;;;3.35;1.42;;;;;;;21.95;48.87;101147.03;4942874;28;20034;-73
2023/08/29 04:42:37;;;;;;;5.05;1.90;;;;;;;21.94;49.17;101151.50;4942728;28;20778;-72
2023/08/29 04:45:07;;;;;;;6.35;1.77;;;;;;;21.95;49.11;101145.19;4943990;29;20178;-76
2023/08/29 04:47:32;;;;;;;3.28;1.50;;;;;;;21.95;49.34;101142.53;4944542;29;20043;-73
2023/08/29 04:50:01;;;;;;;3.13;1.50;;;;;;;21.94;48.99;101138.22;4942148;28;20027;-73
2023/08/29 04:52:27;;;;;;;4.22;1.50;;;;;;;21.93;49.15;101140.03;4942662;29;20031;-72
2023/08/29 04:54:53;;;;;;;3.72;1.52;;;;;;;21.93;48.91;101142.69;4942282;29;20071;-73
2023/08/29 04:57:19;;;;;;;3.00;1.45;;;;;;;21.94;48.94;101148.84;4944461;28;20087;-77
2023/08/29 04:59:44;;;;;;;3.03;1.50;;;;;;;21.91;48.82;101144.66;4942737;29;20158;-73
2023/08/29 05:02:09;;;;;;;4.55;1.90;;;;;;;21.92;49.17;101145.47;4943407;28;20101;-76
2023/08/29 05:04:35;;;;;;;3.90;1.70;;;;;;;21.91;49.16;101149.13;4942539;28;20445;-72
2023/08/29 05:07:00;;;;;;;3.13;1.52;;;;;;;21.91;48.89;101152.59;4942911;28;20295;-73
2023/08/29 05:09:25;;;;;;;2.95;1.40;;;;;;;21.91;49.13;101146.47;4942069;28;20408;-73
2023/08/29 05:11:50;;;;;;;3.00;1.40;;;;;;;21.91;48.68;101146.47;4941640;29;20440;-73
2023/08/29 05:14:16;;;;;;;4.13;1.50;;;;;;;21.90;49.17;101144.78;4942845;28;20340;-72
2023/08/29 05:16:41;;;;;;;2.95;1.50;;;;;;;21.90;48.71;101144.78;4942865;29;20046;-72
2023/08/29 05:19:07;;;;;;;3.08;1.50;;;;;;;21.89;49.17;101151.09;4941519;29;20035;-77
2023/08/29 05:21:34;;;;;;;2.92;1.50;;;;;;;21.88;49.12;101144.94;4942615;28;20295;-72
2023/08/29 05:24:00;;;;;;;4.43;1.50;;;;;;;21.89;48.95;101143.13;4942533;29;20555;-72
2023/08/29 05:26:25;;;;;;;3.42;1.60;;;;;;;21.88;48.69;101141.47;4941686;28;20492;-73
2023/08/29 05:28:51;;;;;;;3.15;1.42;;;;;;;21.88;48.72;101150.25;4942148;28;20595;-74
2023/08/29 05:31:16;;;;;;;2.40;1.30;;;;;;;21.88;48.82;101141.47;4941195;28;20114;-73
2023/08/29 05:33:41;;;;;;;3.75;1.60;;;;;;;21.88;49.22;101152.06;4941352;29;20582;-74
2023/08/29 05:36:07;;;;;;;4.13;1.50;;;;;;;21.87;49.06;101151.25;4942309;28;20034;-73
2023/08/29 05:38:32;;;;;;;3.63;1.50;;;;;;;21.88;48.75;101155.53;4942564;28;20477;-74
2023/08/29 05:40:57;;;;;;;3.67;1.60;;;;;;;21.87;48.94;101143.28;4941338;28;20113;-77
2023/08/29 05:43:23;;;;;;;4.03;1.60;;;;;;;21.88;49.28;101157.38;4941280;29;20039;-74
2023/08/29 05:45:48;;;;;;;5.22;1.70;;;;;;;21.88;49.28;101152.91;4942786;29;20257;-78
2023/08/29 05:48:13;;;;;;;3.43;1.60;;;;;;;21.87;49.13;101151.25;4941459;28;20035;-74
2023/08/29 05:50:40;;;;;;;4.60;1.70;;;;;;;21.87;49.23;101153.91;4941871;28;20790;-76
2023/08/29 05:53:05;;;;;;;4.18;1.58;;;;;;;21.86;49.24;101148.72;4942059;28;20035;-77
2023/08/29 05:55:31;;;;;;;2.67;1.40;;;;;;;21.86;49.11;101148.72;4942213;28;20497;-74
2023/08/29 05:57:56;;;;;;;3.70;1.65;;;;;;;21.87;49.30;101148.59;4941595;29;20145;-76
2023/08/29 06:00:21;;;;;;;3.20;1.58;;;;;;;21.87;49.41;101158.34;4940663;28;20125;-74
2023/08/29 06:02:47;;;;;;;2.58;1.35;;;;;;;21.87;49.25;101153.03;4941203;28;20793;-74
2023/08/29 06:05:13;;;;;;;4.05;1.80;;;;;;;21.86;49.40;101151.38;4941370;28;20134;-73
2023/08/29 06:07:38;;;;;;;4.15;1.80;;;;;;;21.86;49.43;101152.22;4940725;28;20106;-76
2023/08/29 06:10:08;;;;;;;3.25;1.63;;;;;;;21.86;49.63;101151.38;4941914;28;20082;-73
2023/08/29 06:12:33;;;;;;;3.17;1.50;;;;;;;21.86;49.90;101148.72;4942161;28;20045;-73
2023/08/29 06:14:58;;;;;;;3.85;1.80;;;;;;;21.87;49.63;101150.38;4940640;28;20051;-77
2023/08/29 06:17:23;;;;;;;3.22;1.50;;;;;;;21.86;50.02;101151.38;4941754;29;20035;-72
2023/08/29 06:19:49;;;;;;;3.67;1.57;;;;;;;21.89;49.92;101149.28;4941288;28;20035;-75
2023/08/29 06:22:14;;;;;;;4.80;2.00;;;;;;;21.95;49.77;101147.84;4941806;29;20265;-73
2023/08/29 06:24:39;;;;;;;3.60;1.55;;;;;;;21.96;49.77;101144.22;4941641;28;20295;-75
2023/08/29 06:27:05;;;;;;;3.58;1.45;;;;;;;21.98;49.96;101138.78;4941840;29;20027;-74
2023/08/29 06:29:30;;;;;;;3.28;1.55;;;;;;;21.99;49.91;101146.59;4940256;29;20031;-75
2023/08/29 06:31:56;;;;;;;3.83;1.63;;;;;;;21.98;50.41;101147.56;4941058;28;20569;-72
2023/08/29 06:34:23;;;;;;;3.78;1.42;;;;;;;21.98;50.63;101149.41;4955947;28;20093;-73
2023/08/29 06:36:48;;;;;;;4.97;1.60;;;;;;;21.98;50.50;101154.69;4938828;29;20049;-75
2023/08/29 06:39:14;;;;;;;3.25;1.60;;;;;;;21.96;50.49;101146.06;4941319;29;20027;-78
2023/08/29 06:41:39;;;;;;;3.42;1.48;;;;;;;21.96;50.82;101146.06;4941457;28;20039;-72
2023/08/29 06:44:05;;;;;;;3.25;1.70;;;;;;;21.95;51.04;101142.53;4956466;28;20495;-77
2023/08/29 06:46:30;;;;;;;3.55;1.55;;;;;;;21.95;50.85;101141.72;4942391;28;20039;-73
2023/08/29 06:48:56;;;;;;;3.65;1.88;;;;;;;21.93;51.27;101147.16;4941701;28;20108;-74
2023/08/29 06:51:21;;;;;;;3.30;1.63;;;;;;;21.92;51.54;101142.81;4900749;28;20780;-73
2023/08/29 06:53:46;;;;;;;4.28;1.60;;;;;;;21.93;51.06;101147.16;4941410;28;20472;-74
2023/08/29 06:56:12;;;;;;;3.67;1.63;;;;;;;21.94;51.18;101148.84;4941523;29;20045;-74
2023/08/29 06:58:40;;;;;;;3.60;1.60;;;;;;;21.92;52.01;101156.09;4941081;29;20495;-73
2023/08/29 07:01:05;;;;;;;3.90;1.58;;;;;;;21.93;51.92;101153.28;4942422;28;20031;-73
2023/08/29 07:03:30;;;;;;;3.67;1.65;;;;;;;21.95;51.67;101160.28;4941474;29;20377;-75
2023/08/29 07:05:56;;;;;;;3.70;1.60;;;;;;;21.94;51.78;101146.19;4941447;29;20509;-73
2023/08/29 07:08:22;;;;;;;3.30;1.50;;;;;;;21.92;52.04;101149.00;4941494;29;20335;-74
2023/08/29 07:10:48;;;;;;;4.15;1.73;;;;;;;21.93;51.92;101148.00;4940392;28;20128;-74
2023/08/29 07:13:13;;;;;;;3.58;1.50;;;;;;;21.94;52.15;101164.78;4941283;28;20039;-75
2023/08/29 07:15:38;;;;;;;3.35;1.60;;;;;;;21.94;51.95;101159.47;4943665;29;20058;-75
2023/08/29 07:18:05;;;;;;;3.35;1.67;;;;;;;21.95;52.41;101163.78;4943915;28;20166;-75
2023/08/29 07:20:31;;;;;;;3.90;1.67;;;;;;;21.98;52.26;101155.53;4943669;28;20039;-74
2023/08/29 07:22:56;;;;;;;3.53;1.80;;;;;;;22.00;52.20;101155.38;4944427;28;20126;-75
2023/08/29 07:25:38;;;;;;;4.45;1.67;;;;;;;21.99;52.55;101157.22;4944344;28;20130;-76
2023/08/29 07:28:09;;;;;;;3.97;1.55;;;;;;;22.00;51.92;101163.34;4945033;28;20039;-83
2023/08/29 07:30:35;;;;;;;4.70;1.70;;;;;;;22.00;52.08;101161.56;4944926;28;20031;-73
2023/08/29 07:33:00;;;;;;;4.90;1.65;;;;;;;22.00;52.05;101158.91;4944161;29;20039;-70
2023/08/29 07:35:25;;;;;;;5.57;1.90;;;;;;;21.98;52.53;101160.84;4944547;29;20034;-72
2023/08/29 07:37:51;;;;;;;2.97;1.23;;;;;;;21.93;52.32;101166.56;4944226;28;20035;-72
2023/08/29 07:40:17;;;;;;;2.85;1.25;;;;;;;21.92;52.59;101166.72;4943700;29;20292;-72
2023/08/29 07:42:43;;;;;;;4.90;1.42;;;;;;;21.95;52.72;101162.94;4944376;29;20039;-75
2023/08/29 07:45:09;;;;;;;3.63;1.60;;;;;;;21.98;52.52;101166.13;4944028;28;20041;-76
2023/08/29 07:47:34;;;;;;;4.63;1.30;;;;;;;22.01;52.73;101173.81;4943937;29;20032;-76
2023/08/29 07:49:59;;;;;;;6.15;1.30;;;;;;;22.02;53.00;101170.19;4943900;29;20114;-74
2023/08/29 07:52:26;;;;;;;3.50;1.42;;;;;;;22.05;52.71;101166.44;4944464;29;20536;-75
2023/08/29 07:54:51;;;;;;;4.78;1.50;;;;;;;22.07;52.84;101170.59;4940786;28;20042;-67
2023/08/29 07:57:17;;;;;;;2.92;1.45;;;;;;;22.06;52.74;101168.94;4943229;28;20031;-71
2023/08/29 07:59:42;;;;;;;4.22;1.67;;;;;;;22.06;53.24;101166.28;4942675;29;20041;-69
2023/08/29 08:02:07;;;;;;;4.88;1.50;;;;;;;22.04;53.24;101157.63;4943390;29;20450;-71
2023/08/29 08:04:33;;;;;;;7.10;1.88;;;;;;;22.05;53.36;101166.44;4944142;28;20035;-71
2023/08/29 08:06:58;;;;;;;5.57;1.65;;;;;;;22.08;53.01;101161.66;4942780;28;20090;-69
2023/08/29 08:09:23;;;;;;;13.38;1.70;;;;;;;22.08;53.31;101163.50;4944019;28;20043;-69
2023/08/29 08:11:49;;;;;;;3.35;1.50;;;;;;;22.12;53.18;101166.69;4943037;29;20043;-76
2023/08/29 08:14:17;;;;;;;3.53;1.45;;;;;;;22.10;53.25;101162.34;4942396;28;20051;-76
2023/08/29 08:16:43;;;;;;;5.07;1.60;;;;;;;22.14;53.15;101164.72;4942613;28;20058;-71
2023/08/29 08:19:10;;;;;;;3.05;1.45;;;;;;;22.14;53.23;101168.19;4943061;28;20031;-79
2023/08/29 08:21:35;;;;;;;4.85;1.40;;;;;;;22.16;53.46;101170.72;4941528;28;20046;-70
2023/08/29 08:24:00;;;;;;;3.85;1.45;;;;;;;22.17;52.95;101169.75;4942295;28;20473;-79
2023/08/29 08:26:27;;;;;;;3.35;1.20;;;;;;;22.17;52.98;101172.41;4943257;28;20444;-72
2023/08/29 08:28:53;;;;;;;6.20;1.50;;;;;;;22.18;53.23;101171.44;4941567;28;21105;-83
2023/08/29 08:31:19;;;;;;;5.05;1.30;;;;;;;22.20;52.88;101164.16;4942821;29;20042;-77
2023/08/29 08:33:45;;;;;;;2.80;1.20;;;;;;;22.21;53.31;101161.34;4942829;29;20039;-72
2023/08/29 08:36:10;;;;;;;4.35;1.20;;;;;;;22.22;53.11;101162.19;4942023;28;20134;-71
2023/08/29 08:38:35;;;;;;;3.60;1.40;;;;;;;22.21;52.90;101164.00;4942443;28;20035;-70
2023/08/29 08:41:03;;;;;;;3.60;1.15;;;;;;;22.21;52.86;101166.66;4942283;29;20058;-69
2023/08/29 08:43:29;;;;;;;3.55;1.10;;;;;;;22.22;52.79;101165.69;4941798;28;20148;-75
2023/08/29 08:45:55;;;;;;;4.35;1.10;;;;;;;22.22;52.70;101167.50;4941969;29;20035;-81
2023/08/29 08:48:21;;;;;;;5.18;1.38;;;;;;;22.31;52.62;101171.16;4942176;29;20308;-71
2023/08/29 08:50:49;;;;;;;3.88;1.08;;;;;;;22.36;52.52;101163.56;4941019;29;20035;-76
2023/08/29 08:53:18;;;;;;;4.70;1.10;;;;;;;22.37;52.74;101160.78;4942492;29;20110;-76
2023/08/29 08:55:43;;;;;;;3.70;1.17;;;;;;;22.39;52.63;101166.78;4941324;29;20070;-76
2023/08/29 08:58:09;;;;;;;2.90;1.10;;;;;;;22.41;52.85;101161.31;4941455;28;20656;-74
2023/08/29 09:00:34;;;;;;;2.90;1.10;;;;;;;22.40;52.47;101155.19;4944228;28;20027;-79
2023/08/29 09:02:59;;;;;;;3.13;1.02;;;;;;;22.40;52.53;101160.50;4943413;29;20211;-78
2023/08/29 09:05:25;;;;;;;3.25;1.20;;;;;;;22.40;52.74;101157.84;4943102;28;20078;-72
2023/08/29 09:07:50;;;;;;;3.97;1.10;;;;;;;22.41;52.27;101156.88;4943339;29;20031;-72
2023/08/29 09:10:16;;;;;;;2.28;1.00;;;;;;;22.42;52.65;101160.34;4942487;29;20035;-77
2023/08/29 09:13:00;;;;;;;2.58;1.00;;;;;;;22.39;52.41;101158.81;4943167;28;20089;-82
2023/08/29 09:15:26;;;;;;;2.10;0.90;;;;;;;22.41;52.21;101161.31;4942089;28;20059;-73
2023/08/29 09:17:54;;;;;;;2.15;0.90;;;;;;;22.41;52.27;101158.66;4942184;29;20047;-74
2023/08/29 09:20:21;;;;;;;2.65;1.00;;;;;;;22.39;52.52;101158.81;4942280;29;20449;-76
2023/08/29 09:22:47;;;;;;;4.38;1.20;;;;;;;22.41;52.64;101163.97;4942877;29;20501;-73
2023/08/29 09:25:13;;;;;;;3.28;1.00;;;;;;;22.42;52.46;101165.66;4941840;28;20138;-76
2023/08/29 09:27:40;;;;;;;2.97;1.23;;;;;;;22.41;52.19;101167.47;4942672;28;20126;-75
2023/08/29 09:30:07;;;;;;;2.00;1.00;;;;;;;22.41;52.40;101170.13;4942638;29;20078;-74
2023/08/29 09:32:32;;;;;;;3.20;1.10;;;;;;;22.42;52.31;101169.13;4941489;29;20538;-74
2023/08/29 09:35:24;;;;;;;3.28;1.23;;;;;;;22.41;52.70;101175.44;4938759;28;20069;-73
2023/08/29 09:37:52;;;;;;;2.53;0.90;;;;;;;22.37;52.97;101168.75;4941001;29;20047;-76
2023/08/29 09:40:18;;;;;;;3.08;1.00;;;;;;;22.38;52.75;101170.44;4940558;29;20385;-70
2023/08/29 09:43:00;;;;;;;4.57;1.10;;;;;;;22.39;52.70;101163.28;4940335;28;20031;-72
2023/08/29 09:45:30;;;;;;;4.38;0.90;;;;;;;22.41;52.47;101164.84;4956348;28;20497;-74
2023/08/29 09:48:05;;;;;;;3.38;1.15;;;;;;;22.40;52.69;101157.84;4941304;28;20436;-75
2023/08/29 09:50:33;;;;;;;3.05;0.90;;;;;;;22.43;52.29;101156.69;4956143;28;20122;-76
2023/08/29 09:52:59;;;;;;;3.28;1.00;;;;;;;22.43;52.76;101144.28;4941334;29;20042;-75
2023/08/29 09:55:26;;;;;;;2.92;0.90;;;;;;;22.43;52.34;101154.88;4940781;29;20034;-76
2023/08/29 09:57:53;;;;;;;4.28;1.17;;;;;;;22.43;52.44;101154.88;4940945;29;20031;-71
2023/08/29 10:00:22;;;;;;;2.33;1.10;;;;;;;22.42;52.76;101142.59;4941600;28;20027;-74
2023/08/29 10:02:50;;;;;;;2.85;1.00;;;;;;;22.43;52.92;101149.56;4941764;28;20037;-74
2023/08/29 10:05:21;;;;;;;5.05;1.13;;;;;;;22.43;52.62;101148.72;4942078;29;20039;-76
2023/08/29 10:07:51;;;;;;;1.95;0.93;;;;;;;22.43;52.75;101151.38;4942225;28;20042;-74
2023/08/29 10:10:17;;;;;;;2.28;1.00;;;;;;;22.39;52.73;101142.03;4937676;28;20110;-73
2023/08/29 10:12:43;;;;;;;3.90;1.00;;;;;;;22.36;52.96;101145.81;4941061;29;20097;-72
2023/08/29 10:15:09;;;;;;;4.03;1.13;;;;;;;22.33;53.29;101143.44;4939962;28;20409;-72
2023/08/29 10:17:36;;;;;;;3.42;1.02;;;;;;;22.34;53.24;101146.97;4941009;28;20074;-72
2023/08/29 10:20:08;;;;;;;4.30;0.80;;;;;;;22.30;53.29;101146.41;4940656;28;20094;-73
2023/08/29 10:22:34;;;;;;;1.75;0.70;;;;;;;22.32;53.10;101139.13;4940267;29;20436;-71
2023/08/29 10:25:02;;;;;;;3.00;0.90;;;;;;;22.32;53.34;101141.78;4940497;28;20039;-76
2023/08/29 10:27:28;;;;;;;1.98;0.88;;;;;;;22.33;53.06;101137.31;4940808;28;20478;-73
2023/08/29 10:29:53;;;;;;;3.78;1.35;;;;;;;22.35;52.73;101135.34;4940980;28;20093;-69
2023/08/29 10:32:20;;;;;;;3.95;0.85;;;;;;;22.35;52.98;101136.19;4941690;28;20039;-70
2023/08/29 10:34:46;;;;;;;3.40;1.00;;;;;;;22.38;52.96;101127.94;4942933;28;20054;-70
2023/08/29 10:37:18;;;;;;;3.08;1.00;;;;;;;22.45;52.38;101129.00;4940130;28;20426;-74
2023/08/29 10:39:44;;;;;;;5.00;0.90;;;;;;;22.51;52.49;101126.75;4939295;29;20035;-73
2023/08/29 10:42:13;;;;;;;3.20;0.95;;;;;;;22.53;52.27;101128.28;4940531;29;20024;-77
2023/08/29 10:44:44;;;;;;;2.90;0.80;;;;;;;22.55;52.41;101134.28;4944438;29;20082;-80
2023/08/29 10:50:18;;;;;;;4.57;0.93;;;;;;;22.56;52.63;101129.81;4948240;28;20047;-88
2023/08/29 10:52:46;;;;;;;1.90;0.70;;;;;;;22.58;52.60;101118.06;4947835;28;20043;-74
2023/08/29 10:55:27;;;;;;;3.08;0.80;;;;;;;22.57;52.94;101123.50;4965009;28;20031;-79
2023/08/29 10:57:53;;;;;;;3.90;1.10;;;;;;;22.57;52.98;101121.72;4949958;28;20049;-75
2023/08/29 11:00:35;;;;;;;2.95;0.90;;;;;;;22.55;52.97;101112.22;4944774;28;20077;-76
2023/08/29 11:03:06;;;;;;;10.60;1.00;;;;;;;22.56;53.24;101105.91;4945496;29;20077;-78
2023/08/29 11:05:31;;;;;;;2.35;0.90;;;;;;;22.58;52.96;101106.59;4944785;28;20464;-72
2023/08/29 11:08:22;;;;;;;3.00;0.95;;;;;;;22.58;53.34;101107.44;4944444;28;20027;-75
2023/08/29 11:11:12;;;;;;;2.50;0.80;;;;;;;22.60;53.27;101109.94;4943344;29;20037;-73
2023/08/29 11:14:01;;;;;;;2.30;0.85;;;;;;;22.57;52.96;101105.78;4943897;29;20493;-75
2023/08/29 11:16:34;;;;;;;6.38;0.90;;;;;;;22.58;52.80;101099.47;4959005;28;20043;-74
2023/08/29 11:19:15;;;;;;;6.07;0.90;;;;;;;22.59;52.96;101100.31;4944236;29;20031;-84
2023/08/29 11:21:46;;;;;;;4.10;0.90;;;;;;;22.60;53.18;101094.81;4944990;28;20043;-74
2023/08/29 11:24:12;;;;;;;3.63;0.90;;;;;;;22.61;53.04;101091.19;4944343;28;20043;-78
2023/08/29 11:26:43;;;;;;;3.70;1.08;;;;;;;22.61;52.78;101091.19;4944541;29;20035;-69